Time;durP1;ratioP1;P1;durP2;ratioP2;P2;SDS_P1;SDS_P2;PMS_P1;PMS_P2;Temp;Humidity;BMP_temperature;BMP_pressure;BME280_temperature;BME280_humidity;BME280_pressure;Samples;Min_cycle;Max_cycle;Signal;HPM_P1;HPM_P2
2022/08/10 00:02:27;;;;;;;;;;;;;;;18.71;55.33;102037.38;5057488;28;20402;-79
2022/08/10 00:04:52;;;;;;;;;;;;;;;18.68;55.37;102037.47;5062234;28;19952;-79
2022/08/10 00:07:18;;;;;;;;;;;;;;;18.66;55.50;102041.91;5056406;28;19920;-79
2022/08/10 00:09:43;;;;;;;;;;;;;;;18.66;55.48;102041.91;5043234;28;19936;-79
2022/08/10 00:12:08;;;;;;;;;;;;;;;18.64;55.66;102043.75;5066345;28;19950;-79
2022/08/10 00:14:34;;;;;;;;;;;;;;;18.63;55.70;102034.13;5039169;28;20008;-79
2022/08/10 00:16:59;;;;;;;;;;;;;;;18.62;55.72;102038.56;5060780;28;19921;-79
2022/08/10 00:19:24;;;;;;;;;;;;;;;18.61;55.63;102039.47;5057483;28;19916;-79
2022/08/10 00:21:49;;;;;;;;;;;;;;;18.60;55.88;102039.53;5059847;28;19928;-79
2022/08/10 00:24:15;;;;;;;;;;;;;;;18.57;56.15;102031.75;5043822;28;19925;-79
2022/08/10 00:26:40;;;;;;;;;;;;;;;18.58;56.07;102025.53;5050913;28;19927;-80
2022/08/10 00:29:06;;;;;;;;;;;;;;;18.56;55.97;102033.50;5062123;28;19921;-79
2022/08/10 00:31:31;;;;;;;;;;;;;;;18.54;55.94;102026.56;5065156;28;19986;-79
2022/08/10 00:33:56;;;;;;;;;;;;;;;18.56;55.58;102030.00;5063870;28;20419;-79
2022/08/10 00:36:21;;;;;;;;;;;;;;;18.55;55.56;102033.53;5057973;28;19927;-79
2022/08/10 00:38:47;;;;;;;;;;;;;;;18.52;55.51;102026.63;5059375;28;19999;-79
2022/08/10 00:41:12;;;;;;;;;;;;;;;18.53;55.77;102023.09;5064226;28;19928;-79
2022/08/10 00:43:37;;;;;;;;;;;;;;;18.50;55.62;102023.19;5046560;28;19970;-79
2022/08/10 00:46:03;;;;;;;;;;;;;;;18.52;55.48;102023.97;5064280;28;19920;-79
2022/08/10 00:48:28;;;;;;;;;;;;;;;18.51;56.00;102018.78;5053497;28;19917;-78
2022/08/10 00:50:54;;;;;;;;;;;;;;;18.48;55.81;102024.16;5066364;28;19924;-79
2022/08/10 00:53:19;;;;;;;;;;;;;;;18.47;55.83;102015.41;5064556;28;19921;-79
2022/08/10 00:55:44;;;;;;;;;;;;;;;18.46;55.72;102015.44;5059233;28;20284;-79
2022/08/10 00:58:10;;;;;;;;;;;;;;;18.45;55.78;102017.19;5061101;28;19925;-79
2022/08/10 01:00:35;;;;;;;;;;;;;;;18.42;56.13;102011.16;5053678;28;19916;-79
2022/08/10 01:03:01;;;;;;;;;;;;;;;18.43;56.04;102016.38;5063016;28;19925;-79
2022/08/10 01:05:26;;;;;;;;;;;;;;;18.41;56.03;102006.81;5060501;28;19940;-79
2022/08/10 01:08:10;;;;;;;;;;;;;;;18.40;55.85;102013.84;5058747;28;19921;-79
2022/08/10 01:11:01;;;;;;;;;;;;;;;18.43;56.02;102003.22;5056321;28;20012;-79
2022/08/10 01:13:43;;;;;;;;;;;;;;;18.44;54.70;102007.56;5042068;28;19921;-79
2022/08/10 01:16:16;;;;;;;;;;;;;;;18.40;55.38;102012.97;5053522;28;19920;-79
2022/08/10 01:18:42;;;;;;;;;;;;;;;18.43;54.62;102007.59;5061466;28;20050;-78
2022/08/10 01:21:10;;;;;;;;;;;;;;;18.41;54.75;102007.66;5073109;28;20003;-79
2022/08/10 01:23:44;;;;;;;;;;;;;;;18.38;55.11;102005.16;5063319;28;19947;-79
2022/08/10 01:26:23;;;;;;;;;;;;;;;18.38;54.97;102004.28;5061360;28;20327;-79
2022/08/10 01:29:00;;;;;;;;;;;;;;;18.33;55.07;102011.47;5042851;28;19921;-77
2022/08/10 01:31:29;;;;;;;;;;;;;;;18.32;54.93;102005.34;5057957;28;19960;-76
2022/08/10 01:34:01;;;;;;;;;;;;;;;18.30;54.92;102004.56;5050063;28;20023;-76
2022/08/10 01:36:28;;;;;;;;;;;;;;;18.25;54.63;102003.81;5053776;28;19916;-76
2022/08/10 01:38:56;;;;;;;;;;;;;;;18.31;54.40;102003.63;5060352;28;20079;-76
2022/08/10 01:41:30;;;;;;;;;;;;;;;18.24;54.70;102010.00;5060440;28;20027;-76
2022/08/10 01:44:09;;;;;;;;;;;;;;;18.23;55.21;102005.66;5058121;28;19955;-76
2022/08/10 01:46:36;;;;;;;;;;;;;;;18.20;55.77;102005.75;5063796;28;19946;-76
2022/08/10 01:49:03;;;;;;;;;;;;;;;18.22;55.40;102001.28;5057614;28;19951;-76
2022/08/10 01:51:31;;;;;;;;;;;;;;;18.23;55.56;102004.78;5061776;28;19938;-77
2022/08/10 01:54:00;;;;;;;;;;;;;;;18.20;55.74;101997.88;5054374;28;19959;-76
2022/08/10 01:56:27;;;;;;;;;;;;;;;18.15;55.93;102000.63;5056792;28;20358;-76
2022/08/10 01:58:57;;;;;;;;;;;;;;;18.21;55.37;101998.72;5052339;28;19916;-76
2022/08/10 02:01:24;;;;;;;;;;;;;;;18.15;55.88;102005.06;5053989;28;19925;-76
2022/08/10 02:03:51;;;;;;;;;;;;;;;18.14;55.96;102003.31;5048185;28;19924;-76
2022/08/10 02:06:18;;;;;;;;;;;;;;;18.13;55.24;102010.34;5059849;28;19925;-76
2022/08/10 02:08:45;;;;;;;;;;;;;;;18.13;55.28;102007.72;5043418;28;19939;-77
2022/08/10 02:11:11;;;;;;;;;;;;;;;18.13;55.10;102015.59;5059880;28;19927;-79
2022/08/10 02:13:37;;;;;;;;;;;;;;;18.11;55.41;102017.44;5057789;28;19924;-79
2022/08/10 02:16:04;;;;;;;;;;;;;;;18.06;55.46;102019.38;5057902;28;19921;-79
2022/08/10 02:18:31;;;;;;;;;;;;;;;18.05;56.04;102015.00;5058663;28;19912;-78
2022/08/10 02:20:59;;;;;;;;;;;;;;;18.03;56.01;102013.34;5055121;28;20419;-79
2022/08/10 02:23:29;;;;;;;;;;;;;;;17.98;55.55;102009.97;5057945;28;19929;-79
2022/08/10 02:25:56;;;;;;;;;;;;;;;18.04;55.55;102007.16;5057260;28;19969;-79
2022/08/10 02:28:23;;;;;;;;;;;;;;;18.01;56.12;102008.13;5060120;28;19928;-78
2022/08/10 02:30:49;;;;;;;;;;;;;;;18.04;56.04;102008.00;5062151;28;19920;-78
2022/08/10 02:33:17;;;;;;;;;;;;;;;18.07;56.11;102018.44;5065622;28;20315;-78
2022/08/10 02:35:43;;;;;;;;;;;;;;;18.04;56.98;102013.28;5059597;28;19920;-78
2022/08/10 02:38:09;;;;;;;;;;;;;;;18.03;57.23;102016.84;5058259;28;19947;-79
2022/08/10 02:40:42;;;;;;;;;;;;;;;17.99;56.99;102014.34;5063098;28;20053;-78
2022/08/10 02:43:07;;;;;;;;;;;;;;;17.97;57.41;102024.91;5061869;28;19964;-78
2022/08/10 02:45:40;;;;;;;;;;;;;;;17.95;57.38;102021.44;5065872;28;19960;-78
2022/08/10 02:48:08;;;;;;;;;;;;;;;17.91;57.37;102025.09;5064049;28;19920;-79
2022/08/10 02:50:35;;;;;;;;;;;;;;;17.91;57.30;102022.47;5063526;28;20219;-79
2022/08/10 02:53:12;;;;;;;;;;;;;;;17.85;57.60;102019.19;5057859;28;20403;-79
2022/08/10 02:55:40;;;;;;;;;;;;;;;17.91;57.48;102019.84;5067964;28;19935;-79
2022/08/10 02:58:10;;;;;;;;;;;;;;;17.89;57.61;102026.03;5060263;28;20281;-79
2022/08/10 03:00:40;;;;;;;;;;;;;;;17.89;57.51;102026.91;5058320;28;19956;-78
2022/08/10 03:03:05;;;;;;;;;;;;;;;17.83;58.29;102024.47;5050929;28;20297;-78
2022/08/10 03:05:31;;;;;;;;;;;;;;;17.88;57.45;102029.59;5060550;28;19928;-78
2022/08/10 03:08:03;;;;;;;;;;;;;;;17.84;58.28;102026.19;5051872;28;20443;-76
2022/08/10 03:10:30;;;;;;;;;;;;;;;17.87;57.97;102025.25;5066308;28;19947;-78
2022/08/10 03:13:00;;;;;;;;;;;;;;;17.85;57.54;102017.41;5062600;28;19927;-78
2022/08/10 03:15:27;;;;;;;;;;;;;;;17.79;57.74;102017.59;5068379;28;19912;-78
2022/08/10 03:17:54;;;;;;;;;;;;;;;17.79;57.89;102016.75;5062730;28;19952;-78
2022/08/10 03:20:20;;;;;;;;;;;;;;;17.76;58.10;102016.84;5053116;28;19924;-78
2022/08/10 03:22:46;;;;;;;;;;;;;;;17.76;57.53;102020.31;5057864;28;19924;-78
2022/08/10 03:25:13;;;;;;;;;;;;;;;17.70;57.85;102014.41;5059098;28;19974;-78
2022/08/10 03:27:39;;;;;;;;;;;;;;;17.72;57.63;102023.94;5061606;28;19928;-78
2022/08/10 03:30:06;;;;;;;;;;;;;;;17.74;57.61;102016.03;5062378;28;19963;-78
2022/08/10 03:32:32;;;;;;;;;;;;;;;17.72;58.21;102018.69;5057982;28;19921;-78
2022/08/10 03:34:58;;;;;;;;;;;;;;;17.77;58.48;102021.19;5076134;28;19921;-78
2022/08/10 03:37:23;;;;;;;;;;;;;;;17.72;57.88;102008.19;5050730;28;19921;-78
2022/08/10 03:39:50;;;;;;;;;;;;;;;17.71;58.35;102014.31;5055381;28;19928;-78
2022/08/10 03:42:16;;;;;;;;;;;;;;;17.74;58.29;102005.50;5072330;28;20423;-78
2022/08/10 03:44:42;;;;;;;;;;;;;;;17.73;58.19;102004.66;5064094;28;19925;-78
2022/08/10 03:47:10;;;;;;;;;;;;;;;17.69;58.40;102012.66;5058849;28;20623;-78
2022/08/10 03:49:36;;;;;;;;;;;;;;;17.68;57.96;102017.06;5070082;28;19955;-78
2022/08/10 03:52:02;;;;;;;;;;;;;;;17.68;58.26;102011.78;5067490;28;19920;-78
2022/08/10 03:54:27;;;;;;;;;;;;;;;17.62;57.89;102014.59;5063108;28;19920;-78
2022/08/10 03:56:53;;;;;;;;;;;;;;;17.60;58.11;102012.03;5061894;28;20392;-78
2022/08/10 03:59:19;;;;;;;;;;;;;;;17.64;58.21;102017.22;5059231;28;19943;-79
2022/08/10 04:01:45;;;;;;;;;;;;;;;17.55;58.77;102013.94;5059099;28;20297;-78
2022/08/10 04:04:10;;;;;;;;;;;;;;;17.54;58.96;102014.81;5057433;28;20013;-78
2022/08/10 04:06:36;;;;;;;;;;;;;;;17.52;58.57;102016.66;5060200;28;20400;-78
2022/08/10 04:09:02;;;;;;;;;;;;;;;17.53;58.70;102020.13;5062681;28;19964;-78
2022/08/10 04:11:27;;;;;;;;;;;;;;;17.51;58.52;102016.69;5075629;28;19948;-78
2022/08/10 04:13:52;;;;;;;;;;;;;;;17.47;58.59;102017.69;5059491;28;19921;-78
2022/08/10 04:16:17;;;;;;;;;;;;;;;17.44;58.87;102016.00;5051598;28;20344;-78
2022/08/10 04:18:43;;;;;;;;;;;;;;;17.48;58.90;102020.25;5055433;28;20935;-78
2022/08/10 04:21:14;;;;;;;;;;;;;;;17.49;58.66;102023.75;5064065;28;19913;-79
2022/08/10 04:23:42;;;;;;;;;;;;;;;17.48;59.25;102020.25;5060603;28;19924;-78
2022/08/10 04:26:08;;;;;;;;;;;;;;;17.47;58.89;102028.19;5056211;28;19962;-78
2022/08/10 04:28:34;;;;;;;;;;;;;;;17.48;58.96;102029.91;5062558;28;20347;-78
2022/08/10 04:31:00;;;;;;;;;;;;;;;17.48;59.12;102019.38;5061157;28;19974;-78
2022/08/10 04:33:25;;;;;;;;;;;;;;;17.50;59.21;102025.47;5063988;28;19916;-78
2022/08/10 04:35:51;;;;;;;;;;;;;;;17.45;59.79;102028.22;5066150;28;20395;-78
2022/08/10 04:38:17;;;;;;;;;;;;;;;17.46;59.44;102027.34;5059923;28;19924;-78
2022/08/10 04:40:43;;;;;;;;;;;;;;;17.47;59.70;102025.56;5059600;28;19928;-79
2022/08/10 04:43:08;;;;;;;;;;;;;;;17.48;59.59;102022.88;5055305;28;19929;-78
2022/08/10 04:45:34;;;;;;;;;;;;;;;17.43;60.00;102021.31;5057684;28;19931;-78
2022/08/10 04:47:59;;;;;;;;;;;;;;;17.42;59.59;102022.19;5064988;28;20008;-79
2022/08/10 04:50:24;;;;;;;;;;;;;;;17.44;59.86;102023.03;5061336;28;19920;-78
2022/08/10 04:52:50;;;;;;;;;;;;;;;17.40;59.84;102026.66;5058458;28;20292;-78
2022/08/10 04:55:15;;;;;;;;;;;;;;;17.45;60.37;102025.59;5058703;28;20395;-78
2022/08/10 04:57:41;;;;;;;;;;;;;;;17.49;60.29;102024.63;5063040;28;19920;-78
2022/08/10 05:00:06;;;;;;;;;;;;;;;17.48;60.03;102022.03;5055388;28;19916;-78
2022/08/10 05:02:32;;;;;;;;;;;;;;;17.47;60.56;102021.16;5055628;28;20014;-79
2022/08/10 05:04:57;;;;;;;;;;;;;;;17.49;60.26;102029.88;5058380;28;19928;-78
2022/08/10 05:07:22;;;;;;;;;;;;;;;17.54;60.21;102027.97;5058431;28;19921;-78
2022/08/10 05:09:49;;;;;;;;;;;;;;;17.60;59.93;102024.31;5053886;28;20077;-78
2022/08/10 05:12:14;;;;;;;;;;;;;;;17.57;60.53;102027.00;5057340;28;19920;-78
2022/08/10 05:14:39;;;;;;;;;;;;;;;17.56;60.34;102031.38;5050230;28;20435;-78
2022/08/10 05:17:04;;;;;;;;;;;;;;;17.51;61.24;102022.78;5058851;28;20052;-78
2022/08/10 05:19:30;;;;;;;;;;;;;;;17.55;61.19;102026.19;5057603;28;20346;-78
2022/08/10 05:21:55;;;;;;;;;;;;;;;17.55;60.96;102032.31;5054920;28;19935;-78
2022/08/10 05:24:20;;;;;;;;;;;;;;;17.54;61.10;102033.22;5055917;28;19924;-79
2022/08/10 05:26:46;;;;;;;;;;;;;;;17.57;61.40;102035.75;5063109;28;19924;-79
2022/08/10 05:29:11;;;;;;;;;;;;;;;17.59;61.26;102036.59;5065802;28;20340;-78
2022/08/10 05:31:39;;;;;;;;;;;;;;;17.59;61.29;102039.22;5060127;28;19982;-78
2022/08/10 05:34:04;;;;;;;;;;;;;;;17.59;60.87;102035.72;5067819;28;19951;-78
2022/08/10 05:36:31;;;;;;;;;;;;;;;17.60;60.60;102042.72;5058169;28;19970;-78
2022/08/10 05:38:57;;;;;;;;;;;;;;;17.62;60.69;102038.25;5049320;28;20369;-79
2022/08/10 05:41:24;;;;;;;;;;;;;;;17.63;60.67;102040.00;5050999;28;19925;-78
2022/08/10 05:43:50;;;;;;;;;;;;;;;17.68;60.81;102039.88;5069921;28;19928;-78
2022/08/10 05:46:15;;;;;;;;;;;;;;;17.65;60.72;102043.41;5065125;28;20374;-79
2022/08/10 05:48:41;;;;;;;;;;;;;;;17.66;61.39;102045.16;5062869;28;19978;-78
2022/08/10 05:51:07;;;;;;;;;;;;;;;17.75;60.66;102039.63;5050159;28;19925;-78
2022/08/10 05:53:33;;;;;;;;;;;;;;;17.72;61.27;102044.09;5057173;28;19925;-78
2022/08/10 05:55:59;;;;;;;;;;;;;;;17.75;60.72;102044.88;5063278;28;19929;-78
2022/08/10 05:58:24;;;;;;;;;;;;;;;17.72;61.21;102044.09;5040315;28;20027;-78
2022/08/10 06:00:54;;;;;;;;;;;;;;;17.79;59.75;102041.25;5059413;28;19962;-78
2022/08/10 06:03:25;;;;;;;;;;;;;;;17.81;60.53;102038.56;5061842;28;20031;-78
2022/08/10 06:05:52;;;;;;;;;;;;;;;17.79;60.41;102049.16;5057100;28;20282;-78
2022/08/10 06:08:22;;;;;;;;;;;;;;;17.85;59.37;102043.69;5053958;28;19929;-78
2022/08/10 06:10:49;;;;;;;;;;;;;;;17.88;59.28;102048.00;5061789;28;19974;-78
2022/08/10 06:16:01;;;;;;;;;;;;;;;17.90;59.85;102049.66;5071294;28;19977;-78
2022/08/10 06:18:26;;;;;;;;;;;;;;;17.91;59.00;102043.50;5067878;28;19916;-78
2022/08/10 06:20:53;;;;;;;;;;;;;;;17.91;58.61;102043.50;5069286;28;19975;-78
2022/08/10 06:23:19;;;;;;;;;;;;;;;17.96;57.95;102040.72;5070855;28;19924;-78
2022/08/10 06:25:45;;;;;;;;;;;;;;;17.98;58.72;102046.78;5072083;28;19921;-78
2022/08/10 06:28:12;;;;;;;;;;;;;;;17.98;57.88;102047.66;5050321;28;20801;-78
2022/08/10 06:30:38;;;;;;;;;;;;;;;17.99;57.45;102048.50;5062637;28;19935;-78
2022/08/10 06:33:05;;;;;;;;;;;;;;;18.03;58.18;102047.53;5069166;28;20397;-78
2022/08/10 06:35:31;;;;;;;;;;;;;;;18.02;56.92;102049.28;5066592;28;19917;-78
2022/08/10 06:37:58;;;;;;;;;;;;;;;18.04;57.44;102052.72;5047962;28;19932;-78
2022/08/10 06:40:26;;;;;;;;;;;;;;;18.04;57.52;102050.09;5070119;28;20380;-78
2022/08/10 06:42:52;;;;;;;;;;;;;;;18.07;55.74;102042.09;5071363;28;19928;-78
2022/08/10 06:45:20;;;;;;;;;;;;;;;18.08;55.75;102050.84;5066668;28;19948;-78
2022/08/10 06:47:48;;;;;;;;;;;;;;;18.10;55.79;102049.91;5066732;28;19973;-78
2022/08/10 06:50:25;;;;;;;;;;;;;;;18.10;56.52;102054.28;5056030;28;19921;-78
2022/08/10 06:52:51;;;;;;;;;;;;;;;18.15;56.00;102055.03;5065618;28;19927;-78
2022/08/10 06:55:18;;;;;;;;;;;;;;;18.20;55.70;102049.59;5060157;28;19917;-78
2022/08/10 06:57:44;;;;;;;;;;;;;;;18.20;55.31;102049.59;5064898;28;20391;-78
2022/08/10 07:00:11;;;;;;;;;;;;;;;18.23;54.80;102047.75;5042735;28;19916;-78
2022/08/10 07:02:56;;;;;;;;;;;;;;;18.26;54.70;102047.63;5069166;28;20289;-78
2022/08/10 07:05:23;;;;;;;;;;;;;;;18.33;55.20;102051.81;5069433;28;19928;-78
2022/08/10 07:07:54;;;;;;;;;;;;;;;18.33;54.23;102046.53;5066046;28;19920;-78
2022/08/10 07:10:21;;;;;;;;;;;;;;;18.37;54.20;102055.16;5059316;28;20301;-78
2022/08/10 07:12:47;;;;;;;;;;;;;;;18.36;54.88;102054.31;5066386;28;19924;-78
2022/08/10 07:15:13;;;;;;;;;;;;;;;18.45;58.23;102061.06;5065786;28;20011;-78
2022/08/10 07:17:39;;;;;;;;;;;;;;;18.46;53.59;102053.13;5071186;28;20760;-78
2022/08/10 07:20:07;;;;;;;;;;;;;;;18.49;53.41;102057.44;5065738;28;19991;-78
2022/08/10 07:22:35;;;;;;;;;;;;;;;18.50;54.30;102061.78;5060969;28;19920;-78
2022/08/10 07:25:01;;;;;;;;;;;;;;;18.51;55.34;102058.25;5066636;28;19924;-78
2022/08/10 07:27:28;;;;;;;;;;;;;;;18.52;53.05;102050.28;5071211;28;20392;-78
2022/08/10 07:29:53;;;;;;;;;;;;;;;18.57;53.84;102058.06;5064622;28;19928;-78
2022/08/10 07:32:21;;;;;;;;;;;;;;;18.56;53.88;102053.69;5070526;28;19928;-78
2022/08/10 07:34:47;;;;;;;;;;;;;;;18.58;52.70;102055.34;5079513;28;19917;-78
2022/08/10 07:37:13;;;;;;;;;;;;;;;18.61;52.86;102050.00;5061563;28;20320;-78
2022/08/10 07:39:42;;;;;;;;;;;;;;;18.63;53.61;102057.81;5061475;28;19913;-78
2022/08/10 07:42:08;;;;;;;;;;;;;;;18.63;52.77;102053.41;5069840;28;19966;-78
2022/08/10 07:44:34;;;;;;;;;;;;;;;18.66;53.44;102057.72;5043987;28;19928;-78
2022/08/10 07:47:02;;;;;;;;;;;;;;;18.64;59.60;102062.19;5069800;28;19917;-78
2022/08/10 07:49:33;;;;;;;;;;;;;;;18.66;58.50;102053.31;5057133;28;19996;-78
2022/08/10 07:51:59;;;;;;;;;;;;;;;18.68;55.04;102051.50;5068178;28;19943;-78
2022/08/10 07:54:26;;;;;;;;;;;;;;;18.73;53.69;102048.69;5059964;28;19917;-78
2022/08/10 07:56:54;;;;;;;;;;;;;;;18.74;52.07;102046.94;5075029;28;20373;-78
2022/08/10 07:59:24;;;;;;;;;;;;;;;18.77;52.38;102054.72;5069355;28;19920;-78
2022/08/10 08:01:52;;;;;;;;;;;;;;;18.74;52.88;102055.69;5062941;28;19943;-78
2022/08/10 08:04:19;;;;;;;;;;;;;;;18.75;53.02;102052.13;5048565;28;19920;-78
2022/08/10 08:06:46;;;;;;;;;;;;;;;18.75;52.84;102062.66;5062332;28;20001;-78
2022/08/10 08:09:11;;;;;;;;;;;;;;;18.78;52.46;102059.09;5060211;28;19973;-78
2022/08/10 08:11:38;;;;;;;;;;;;;;;18.84;51.48;102057.06;5069001;28;19916;-78
2022/08/10 08:14:06;;;;;;;;;;;;;;;18.91;51.00;102063.88;5079657;28;19932;-78
2022/08/10 08:16:32;;;;;;;;;;;;;;;18.88;51.09;102063.09;5062229;28;20432;-79
2022/08/10 08:18:58;;;;;;;;;;;;;;;18.85;51.53;102066.72;5065686;28;20006;-79
2022/08/10 08:21:24;;;;;;;;;;;;;;;18.86;50.90;102059.69;5056085;28;20420;-79
2022/08/10 08:23:50;;;;;;;;;;;;;;;18.88;50.99;102055.19;5063121;28;19970;-79
2022/08/10 08:26:16;;;;;;;;;;;;;;;18.91;50.90;102061.22;5066932;28;19923;-79
2022/08/10 08:28:44;;;;;;;;;;;;;;;18.93;50.53;102059.41;5066302;28;19920;-79
2022/08/10 08:31:11;;;;;;;;;;;;;;;18.87;53.48;102059.59;5059415;28;19988;-78
2022/08/10 08:33:36;;;;;;;;;;;;;;;18.97;50.30;102055.75;5077986;28;20407;-78
2022/08/10 08:36:02;;;;;;;;;;;;;;;18.92;51.11;102056.81;5055614;28;19913;-79
2022/08/10 08:38:28;;;;;;;;;;;;;;;18.93;51.15;102058.53;5057805;28;19924;-78
2022/08/10 08:40:59;;;;;;;;;;;;;;;19.06;49.67;102054.56;5067664;28;20392;-78
2022/08/10 08:43:29;;;;;;;;;;;;;;;18.99;50.13;102050.41;5059241;28;19925;-78
2022/08/10 08:45:54;;;;;;;;;;;;;;;18.87;52.98;102056.97;5066714;28;19927;-78
2022/08/10 08:48:26;;;;;;;;;;;;;;;18.99;51.34;102045.16;5067555;28;19912;-79
2022/08/10 08:50:52;;;;;;;;;;;;;;;18.88;55.71;102053.44;5063880;28;19978;-79
2022/08/10 08:53:27;;;;;;;;;;;;;;;18.90;52.85;102040.19;5066319;28;19974;-79
2022/08/10 08:56:01;;;;;;;;;;;;;;;19.05;49.99;102037.88;5060481;28;19967;-79
2022/08/10 08:58:49;;;;;;;;;;;;;;;18.91;53.83;102037.53;5065170;28;19959;-79
2022/08/10 09:01:33;;;;;;;;;;;;;;;19.04;50.70;102035.31;5045281;28;20377;-78
2022/08/10 09:04:17;;;;;;;;;;;;;;;19.09;49.96;102026.34;5062437;28;19940;-79
2022/08/10 09:06:42;;;;;;;;;;;;;;;18.95;57.93;102033.88;5068200;28;19916;-79
2022/08/10 09:09:20;;;;;;;;;;;;;;;19.23;49.73;102021.41;5072171;28;19915;-79
2022/08/10 09:11:57;;;;;;;;;;;;;;;19.15;49.68;102019.97;5059512;28;19928;-79
2022/08/10 09:14:41;;;;;;;;;;;;;;;19.18;49.56;102025.13;5063619;28;19956;-79
2022/08/10 09:17:27;;;;;;;;;;;;;;;19.21;50.20;102009.22;5068587;28;19920;-79
2022/08/10 09:19:57;;;;;;;;;;;;;;;19.20;57.81;102018.91;5064641;28;19932;-79
2022/08/10 09:22:52;;;;;;;;;;;;;;;19.09;50.90;102013.16;5066129;28;20007;-79
2022/08/10 09:25:19;;;;;;;;;;;;;;;19.18;48.94;102011.97;5044011;28;19924;-79
2022/08/10 09:27:46;;;;;;;;;;;;;;;19.09;55.45;102018.44;5070122;28;20347;-79
2022/08/10 09:30:16;;;;;;;;;;;;;;;19.07;57.37;102017.66;5058635;28;19921;-79
2022/08/10 09:32:51;;;;;;;;;;;;;;;19.32;49.05;102011.47;5045697;28;20011;-79
2022/08/10 09:35:26;;;;;;;;;;;;;;;19.37;47.47;101999.88;5058923;28;19924;-79
2022/08/10 09:38:10;;;;;;;;;;;;;;;19.36;48.42;102000.78;5052895;28;19927;-79
2022/08/10 09:40:44;;;;;;;;;;;;;;;19.34;48.33;102000.00;5072075;28;20292;-79
2022/08/10 09:43:21;;;;;;;;;;;;;;;19.24;49.10;102004.72;5068102;28;19970;-79
2022/08/10 09:45:55;;;;;;;;;;;;;;;19.10;52.86;101999.09;5073115;28;20304;-79
2022/08/10 09:48:39;;;;;;;;;;;;;;;19.18;48.84;101999.66;5059304;28;19999;-79
2022/08/10 09:51:15;;;;;;;;;;;;;;;19.24;48.48;101996.81;5066910;28;19924;-78
2022/08/10 09:53:49;;;;;;;;;;;;;;;19.41;51.75;101997.94;5056130;28;19920;-79
2022/08/10 09:56:33;;;;;;;;;;;;;;;19.19;57.58;102004.00;5056369;28;19929;-79
2022/08/10 09:59:17;;;;;;;;;;;;;;;19.34;48.17;101986.81;5048565;28;20333;-79
2022/08/10 10:01:50;;;;;;;;;;;;;;;19.32;49.60;101983.34;5060412;28;19972;-79
2022/08/10 10:04:35;;;;;;;;;;;;;;;19.29;49.90;101977.34;5068038;28;19931;-79
2022/08/10 10:07:04;;;;;;;;;;;;;;;19.16;50.35;101983.03;5054982;28;19935;-79
2022/08/10 10:09:50;;;;;;;;;;;;;;;19.23;47.90;101970.50;5064623;28;19925;-79
2022/08/10 10:12:34;;;;;;;;;;;;;;;19.73;45.21;101960.66;5051984;28;20450;-79
2022/08/10 10:15:21;;;;;;;;;;;;;;;19.64;52.79;101967.16;5058732;28;19946;-79
2022/08/10 10:18:01;;;;;;;;;;;;;;;19.39;46.90;101958.50;5072288;28;19916;-79
2022/08/10 10:20:27;;;;;;;;;;;;;;;19.32;52.17;101956.16;5050481;28;19920;-79
2022/08/10 10:22:56;;;;;;;;;;;;;;;19.11;58.83;101952.53;5061261;28;20300;-79
2022/08/10 10:25:21;;;;;;;;;;;;;;;19.26;51.82;101947.53;5056142;28;19951;-79
2022/08/10 10:27:51;;;;;;;;;;;;;;;19.21;59.04;101954.75;5064864;28;19916;-79
2022/08/10 10:30:18;;;;;;;;;;;;;;;19.58;47.56;101948.09;5053672;28;19921;-79
2022/08/10 10:33:21;;;;;;;;;;;;;;;19.38;57.25;101953.28;5062552;28;20415;-79
2022/08/10 10:35:55;;;;;;;;;;;;;;;19.78;44.86;101929.69;4981329;28;20020;-79
2022/08/10 10:38:25;;;;;;;;;;;;;;;19.86;44.21;101932.88;5060815;28;19920;-79
2022/08/10 10:41:07;;;;;;;;;;;;;;;19.49;56.03;101940.56;5070899;28;19921;-79
2022/08/10 10:43:35;;;;;;;;;;;;;;;19.38;56.98;101932.19;5072076;28;20317;-79
2022/08/10 10:46:21;;;;;;;;;;;;;;;19.94;43.71;101916.72;5059409;28;20273;-78
2022/08/10 10:48:53;;;;;;;;;;;;;;;20.09;43.87;101913.47;5060093;28;19927;-79
2022/08/10 10:51:33;;;;;;;;;;;;;;;19.82;53.94;101928.63;5067851;28;20024;-79
2022/08/10 10:54:06;;;;;;;;;;;;;;;19.93;43.62;101907.13;5057751;28;19920;-79
2022/08/10 10:56:38;;;;;;;;;;;;;;;19.94;43.70;101900.91;5065661;28;19924;-79
2022/08/10 10:59:18;;;;;;;;;;;;;;;19.92;43.65;101902.75;5058825;28;20409;-79
2022/08/10 11:01:54;;;;;;;;;;;;;;;19.48;57.53;101913.34;5061315;28;19963;-78
2022/08/10 11:04:26;;;;;;;;;;;;;;;19.34;51.21;101899.88;5064686;28;19925;-79
2022/08/10 11:06:57;;;;;;;;;;;;;;;19.50;47.34;101900.09;5079398;28;20019;-79
2022/08/10 11:09:25;;;;;;;;;;;;;;;20.46;40.07;101889.88;5070362;28;20370;-79
2022/08/10 11:11:54;;;;;;;;;;;;;;;19.92;44.92;101885.16;5065324;28;20412;-79
2022/08/10 11:14:22;;;;;;;;;;;;;;;19.50;57.10;101892.19;5066013;28;19921;-79
2022/08/10 11:16:50;;;;;;;;;;;;;;;19.78;45.24;101887.50;5059838;28;19923;-79
2022/08/10 11:19:16;;;;;;;;;;;;;;;19.48;57.95;101894.03;5077158;28;19924;-79
2022/08/10 11:21:41;;;;;;;;;;;;;;;19.87;53.42;101881.00;5078646;28;20430;-79
2022/08/10 11:24:12;;;;;;;;;;;;;;;19.74;52.67;101883.28;5064500;28;19967;-79
2022/08/10 11:26:46;;;;;;;;;;;;;;;19.88;42.76;101867.72;5044517;28;19916;-79
2022/08/10 11:29:31;;;;;;;;;;;;;;;20.07;49.81;101865.19;5061947;28;19925;-79
2022/08/10 11:32:00;;;;;;;;;;;;;;;19.41;58.28;101888.16;5068447;28;19916;-79
2022/08/10 11:34:40;;;;;;;;;;;;;;;19.40;58.46;101881.16;5068603;28;20534;-77
2022/08/10 11:37:19;;;;;;;;;;;;;;;19.24;59.83;101867.72;5060063;28;19970;-79
2022/08/10 11:39:47;;;;;;;;;;;;;;;19.40;59.18;101872.41;5041943;28;19924;-79
2022/08/10 11:42:15;;;;;;;;;;;;;;;19.82;46.58;101859.25;5071428;28;19956;-78
2022/08/10 11:44:41;;;;;;;;;;;;;;;19.91;43.68;101857.06;5060019;28;19957;-79
2022/08/10 11:47:12;;;;;;;;;;;;;;;19.85;44.48;101859.94;5050541;28;19966;-78
2022/08/10 11:49:56;;;;;;;;;;;;;;;19.51;56.67;101867.56;5052240;28;19966;-78
2022/08/10 11:52:31;;;;;;;;;;;;;;;19.53;57.42;101874.47;5055820;28;20003;-79
2022/08/10 11:55:01;;;;;;;;;;;;;;;19.57;52.36;101862.91;5058472;28;20506;-78
2022/08/10 11:57:29;;;;;;;;;;;;;;;19.52;58.36;101861.38;5055616;28;19920;-78
2022/08/10 11:59:58;;;;;;;;;;;;;;;19.37;59.45;101860.22;5053636;28;19923;-78
2022/08/10 12:02:45;;;;;;;;;;;;;;;19.57;57.13;101851.50;5060926;28;19924;-79
2022/08/10 12:05:17;;;;;;;;;;;;;;;19.45;58.47;101860.75;5063858;28;19928;-79
2022/08/10 12:07:45;;;;;;;;;;;;;;;19.38;59.84;101848.75;5064189;28;19963;-78
2022/08/10 12:10:12;;;;;;;;;;;;;;;19.37;60.24;101852.31;5058013;28;20388;-78
2022/08/10 12:12:42;;;;;;;;;;;;;;;19.36;59.95;101849.72;5057483;28;19952;-79
2022/08/10 12:15:10;;;;;;;;;;;;;;;20.04;54.44;101838.94;5050293;28;19942;-78
2022/08/10 12:18:04;;;;;;;;;;;;;;;19.86;49.37;101826.53;5074847;28;19967;-78
2022/08/10 12:20:37;;;;;;;;;;;;;;;19.64;56.11;101827.44;5027074;28;20370;-78
2022/08/10 12:23:09;;;;;;;;;;;;;;;19.39;60.27;101837.28;5065610;28;19924;-78
2022/08/10 12:25:40;;;;;;;;;;;;;;;19.44;55.37;101834.44;5060909;28;19928;-78
2022/08/10 12:28:16;;;;;;;;;;;;;;;19.91;47.27;101817.50;5060157;28;19923;-78
2022/08/10 12:30:47;;;;;;;;;;;;;;;19.62;58.39;101826.66;5068734;28;19944;-78
2022/08/10 12:33:18;;;;;;;;;;;;;;;19.42;60.57;101826.63;5054166;28;19963;-78
2022/08/10 12:35:50;;;;;;;;;;;;;;;19.49;60.06;101822.78;5059291;28;19927;-78
2022/08/10 12:38:20;;;;;;;;;;;;;;;19.55;59.71;101816.44;5063449;28;19916;-78
2022/08/10 12:41:05;;;;;;;;;;;;;;;19.82;44.92;101803.88;5052424;28;20337;-78
2022/08/10 12:43:49;;;;;;;;;;;;;;;19.48;60.25;101813.19;5054771;28;19925;-78
2022/08/10 12:46:20;;;;;;;;;;;;;;;19.64;51.04;101805.53;5064644;28;20436;-78
2022/08/10 12:48:51;;;;;;;;;;;;;;;20.01;44.34;101797.72;5059463;28;20011;-78
2022/08/10 12:51:19;;;;;;;;;;;;;;;20.28;54.84;101800.94;5043629;28;19919;-78